Time;durP1;ratioP1;P1;durP2;ratioP2;P2;SDS_P1;SDS_P2;PMS_P1;PMS_P2;Temp;Humidity;BMP_temperature;BMP_pressure;BME280_temperature;BME280_humidity;BME280_pressure;Samples;Min_cycle;Max_cycle;Signal;HPM_P1;HPM_P2
2024/03/18 00:00:57;;;;;;;16.58;3.58;;;10.20;99.90;;;;;;6196421;28;20049;-83
2024/03/18 00:03:57;;;;;;;15.82;3.85;;;10.10;99.90;;;;;;6182261;28;20050;-83
2024/03/18 00:06:58;;;;;;;16.85;3.75;;;10.10;99.90;;;;;;6213549;28;20065;-83
2024/03/18 00:09:59;;;;;;;16.02;3.47;;;10.00;99.90;;;;;;6221834;28;20049;-83
2024/03/18 00:13:00;;;;;;;17.02;3.90;;;9.90;99.90;;;;;;6220887;28;20064;-83
2024/03/18 00:16:00;;;;;;;19.00;3.92;;;9.90;99.90;;;;;;6217456;28;20072;-84
2024/03/18 00:19:01;;;;;;;16.20;3.90;;;9.90;99.90;;;;;;6214615;28;20050;-83
2024/03/18 00:22:01;;;;;;;15.02;4.18;;;9.90;99.90;;;;;;6222121;28;20057;-83
2024/03/18 00:25:02;;;;;;;18.98;4.10;;;10.00;99.90;;;;;;6222285;28;20062;-83
2024/03/18 00:28:04;;;;;;;23.83;4.70;;;10.00;99.90;;;;;;6202552;28;20521;-84
2024/03/18 00:31:04;;;;;;;15.32;4.22;;;10.10;99.90;;;;;;6204834;28;20425;-84
2024/03/18 00:34:05;;;;;;;20.55;4.03;;;10.10;99.90;;;;;;6197523;28;20058;-83
2024/03/18 00:37:06;;;;;;;18.88;3.70;;;10.10;99.90;;;;;;6214643;28;20104;-83
2024/03/18 00:40:08;;;;;;;17.58;4.70;;;10.10;99.90;;;;;;6221399;28;20057;-81
2024/03/18 00:43:09;;;;;;;23.77;4.68;;;10.10;99.90;;;;;;6220312;28;20045;-82
2024/03/18 00:46:10;;;;;;;20.30;4.55;;;10.20;99.90;;;;;;6189755;28;20574;-81
2024/03/18 00:49:11;;;;;;;18.52;4.10;;;10.20;99.90;;;;;;6221491;28;20147;-81
2024/03/18 00:52:12;;;;;;;20.15;4.10;;;10.20;99.90;;;;;;6205537;28;20508;-83
2024/03/18 00:55:14;;;;;;;18.90;4.28;;;10.20;99.90;;;;;;6219362;28;20052;-83
2024/03/18 00:58:15;;;;;;;22.27;4.45;;;10.20;99.90;;;;;;6220918;28;20058;-81
2024/03/18 01:01:16;;;;;;;18.70;4.05;;;10.20;99.90;;;;;;6216438;28;20049;-81
2024/03/18 01:04:17;;;;;;;22.20;4.82;;;10.20;99.90;;;;;;6221212;28;20058;-82
2024/03/18 01:07:18;;;;;;;25.10;5.00;;;10.30;99.90;;;;;;6220646;28;20069;-82
2024/03/18 01:10:18;;;;;;;23.30;5.07;;;10.30;99.90;;;;;;6219922;28;20054;-82
2024/03/18 01:13:20;;;;;;;25.77;4.95;;;10.20;99.90;;;;;;6219094;28;20049;-77
2024/03/18 01:16:20;;;;;;;29.38;5.38;;;10.20;99.90;;;;;;6210481;28;20065;-82
2024/03/18 01:19:21;;;;;;;24.08;5.43;;;10.20;99.90;;;;;;6220866;28;20054;-81
2024/03/18 01:22:22;;;;;;;21.45;5.15;;;10.20;99.90;;;;;;6220652;28;20069;-83
2024/03/18 01:25:23;;;;;;;25.13;5.13;;;10.20;99.90;;;;;;6218754;28;20058;-82
2024/03/18 01:28:24;;;;;;;21.13;5.30;;;10.20;99.90;;;;;;6214985;28;20057;-83
2024/03/18 01:31:25;;;;;;;21.05;5.20;;;10.20;99.90;;;;;;6204321;28;20439;-84
2024/03/18 01:34:26;;;;;;;19.60;5.15;;;10.20;99.90;;;;;;6220645;28;20050;-84
2024/03/18 01:37:26;;;;;;;22.23;5.38;;;10.20;99.90;;;;;;6204411;28;20050;-83
2024/03/18 01:40:27;;;;;;;18.75;5.18;;;10.10;99.90;;;;;;6220363;28;20545;-83
2024/03/18 01:43:28;;;;;;;21.45;5.47;;;10.10;99.90;;;;;;6194322;28;20068;-84
2024/03/18 01:46:28;;;;;;;17.58;5.43;;;10.10;99.90;;;;;;6220737;28;20068;-84
2024/03/18 01:49:29;;;;;;;15.88;4.57;;;10.10;99.90;;;;;;6221024;28;20042;-84
2024/03/18 01:52:30;;;;;;;21.27;5.90;;;10.10;99.90;;;;;;6220822;28;20528;-83
2024/03/18 01:55:32;;;;;;;20.17;5.53;;;10.10;99.90;;;;;;6198302;28;20078;-84
2024/03/18 01:58:33;;;;;;;20.00;6.07;;;10.00;99.90;;;;;;6203602;28;20421;-85
2024/03/18 02:01:34;;;;;;;22.17;6.03;;;10.00;99.90;;;;;;6218617;28;20053;-84
2024/03/18 02:04:36;;;;;;;20.38;5.75;;;10.00;99.90;;;;;;6220807;28;20050;-84
2024/03/18 02:07:37;;;;;;;23.42;6.72;;;10.00;99.90;;;;;;6220023;28;20064;-85
2024/03/18 02:10:39;;;;;;;17.13;5.50;;;10.00;99.90;;;;;;6204356;28;20133;-85
2024/03/18 02:13:40;;;;;;;21.25;6.20;;;10.00;99.90;;;;;;6198362;28;20585;-85
2024/03/18 02:16:40;;;;;;;26.33;6.15;;;9.90;99.90;;;;;;6220053;28;20061;-84
2024/03/18 02:19:41;;;;;;;24.65;6.45;;;9.80;99.90;;;;;;6220239;28;20062;-84
2024/03/18 02:22:42;;;;;;;22.75;6.45;;;9.70;99.90;;;;;;6205304;28;20771;-84
2024/03/18 02:25:43;;;;;;;22.48;6.53;;;9.50;99.90;;;;;;6218436;28;20476;-84
2024/03/18 02:28:45;;;;;;;19.85;6.18;;;9.40;99.90;;;;;;6198887;28;20085;-84
2024/03/18 02:31:46;;;;;;;24.08;6.47;;;9.30;99.90;;;;;;6203130;28;20053;-84
2024/03/18 02:34:47;;;;;;;18.55;6.40;;;9.10;99.90;;;;;;6217886;28;20207;-84
2024/03/18 02:37:47;;;;;;;23.02;6.38;;;9.00;99.90;;;;;;6219712;28;20057;-83
2024/03/18 02:40:48;;;;;;;23.00;5.95;;;8.90;99.90;;;;;;6203278;28;20119;-84
2024/03/18 02:43:49;;;;;;;16.33;5.93;;;8.70;99.90;;;;;;6202823;28;20779;-84
2024/03/18 02:46:50;;;;;;;26.60;7.55;;;8.70;99.90;;;;;;6202946;28;20100;-84
2024/03/18 02:49:51;;;;;;;29.33;9.00;;;8.60;99.90;;;;;;6202625;28;20077;-83
2024/03/18 02:52:51;;;;;;;29.88;8.77;;;8.70;99.90;;;;;;6218877;28;20136;-84
2024/03/18 02:55:54;;;;;;;29.80;8.68;;;8.60;99.90;;;;;;6202866;28;20114;-84
2024/03/18 02:58:55;;;;;;;23.40;8.05;;;8.70;99.90;;;;;;6192391;28;20050;-83
2024/03/18 03:01:56;;;;;;;27.52;8.57;;;8.80;99.90;;;;;;6218690;28;20405;-83
2024/03/18 03:04:57;;;;;;;24.60;7.80;;;9.00;99.90;;;;;;6218026;28;20054;-84
2024/03/18 03:07:57;;;;;;;27.77;8.10;;;9.10;99.90;;;;;;6218905;28;20148;-84
2024/03/18 03:10:58;;;;;;;26.50;7.22;;;9.20;99.90;;;;;;6218843;28;20529;-84
2024/03/18 03:13:59;;;;;;;27.05;6.70;;;9.40;99.90;;;;;;6208340;28;20143;-84
2024/03/18 03:16:59;;;;;;;20.58;5.00;;;9.50;99.90;;;;;;6218844;28;20050;-83
2024/03/18 03:20:00;;;;;;;23.30;5.60;;;9.70;99.90;;;;;;6218625;28;20115;-84
2024/03/18 03:23:01;;;;;;;17.02;4.80;;;9.70;99.90;;;;;;6218066;28;20640;-83
2024/03/18 03:26:02;;;;;;;27.17;5.18;;;9.80;99.90;;;;;;6202109;28;20093;-83
2024/03/18 03:29:03;;;;;;;17.42;4.70;;;9.80;99.90;;;;;;6207749;28;20062;-84
2024/03/18 03:32:04;;;;;;;21.10;4.38;;;9.90;99.90;;;;;;6216522;28;20072;-84
2024/03/18 03:35:04;;;;;;;17.85;4.32;;;9.90;99.90;;;;;;6201288;28;20576;-83
2024/03/18 03:38:05;;;;;;;15.32;3.80;;;10.00;99.90;;;;;;6216183;28;20053;-83
2024/03/18 03:41:06;;;;;;;21.90;4.00;;;10.00;99.90;;;;;;6218405;28;20057;-83
2024/03/18 03:44:07;;;;;;;15.40;3.58;;;10.00;99.90;;;;;;6200375;28;20060;-83
2024/03/18 03:47:07;;;;;;;23.10;3.55;;;10.00;99.90;;;;;;6194654;28;20074;-83
2024/03/18 03:50:08;;;;;;;17.30;3.25;;;10.00;99.90;;;;;;6218117;28;20049;-83
2024/03/18 03:53:09;;;;;;;16.98;3.70;;;10.00;99.90;;;;;;6200751;28;20058;-81
2024/03/18 03:56:09;;;;;;;12.70;3.03;;;10.00;99.90;;;;;;6217836;28;20063;-82
2024/03/18 03:59:10;;;;;;;15.63;2.92;;;10.10;99.90;;;;;;6191162;28;20370;-82
2024/03/18 04:02:11;;;;;;;18.42;3.60;;;10.10;99.90;;;;;;6217674;28;20066;-83
2024/03/18 04:05:12;;;;;;;17.92;3.53;;;10.00;99.90;;;;;;6217411;28;20112;-83
2024/03/18 04:08:13;;;;;;;18.30;3.70;;;10.10;99.90;;;;;;6200194;28;20112;-84
2024/03/18 04:11:14;;;;;;;19.42;3.80;;;10.00;99.90;;;;;;6201618;28;20050;-84
2024/03/18 04:14:14;;;;;;;22.25;3.47;;;9.90;99.90;;;;;;6208058;28;20058;-84
2024/03/18 04:17:15;;;;;;;17.55;3.47;;;9.90;99.90;;;;;;6219796;28;20049;-84
2024/03/18 04:20:19;;;;;;;20.02;3.47;;;9.90;99.90;;;;;;6222941;28;20517;-84
2024/03/18 04:23:20;;;;;;;20.25;3.10;;;9.90;99.90;;;;;;6206708;28;20069;-84
2024/03/18 04:26:21;;;;;;;15.43;3.55;;;9.80;99.90;;;;;;6206908;28;20074;-84
2024/03/18 04:29:22;;;;;;;19.08;3.53;;;9.70;99.90;;;;;;6191279;28;20093;-84
2024/03/18 04:32:22;;;;;;;15.95;3.72;;;9.60;99.90;;;;;;6198564;28;20516;-84
2024/03/18 04:35:23;;;;;;;17.40;3.30;;;9.40;99.90;;;;;;6220817;28;20567;-85
2024/03/18 04:38:24;;;;;;;17.33;3.75;;;9.20;99.90;;;;;;6220472;28;20049;-84
2024/03/18 04:41:26;;;;;;;19.38;3.47;;;9.10;99.90;;;;;;6223174;28;20058;-84
2024/03/18 04:44:27;;;;;;;20.40;3.90;;;9.00;99.90;;;;;;6215772;28;20066;-84
2024/03/18 04:47:28;;;;;;;24.83;3.90;;;9.00;99.90;;;;;;6222643;28;20138;-84
2024/03/18 04:50:29;;;;;;;14.07;3.33;;;8.90;99.90;;;;;;6223364;28;20061;-84
2024/03/18 04:53:30;;;;;;;14.15;3.17;;;8.90;99.90;;;;;;6222869;28;20062;-83
2024/03/18 04:56:31;;;;;;;15.93;3.55;;;8.90;99.90;;;;;;6205339;28;20057;-83
2024/03/18 04:59:32;;;;;;;20.10;3.70;;;8.90;99.90;;;;;;6190123;28;20061;-84
2024/03/18 05:02:33;;;;;;;19.95;3.67;;;8.80;99.90;;;;;;6205491;28;20086;-84
2024/03/18 05:05:33;;;;;;;14.75;3.15;;;8.70;99.90;;;;;;6221984;28;20058;-84
2024/03/18 05:08:34;;;;;;;22.15;3.70;;;8.60;99.90;;;;;;6220543;28;20128;-84
2024/03/18 05:11:35;;;;;;;14.95;3.20;;;8.50;99.90;;;;;;6206225;28;20790;-83
2024/03/18 05:14:35;;;;;;;20.70;4.07;;;8.40;99.90;;;;;;6216658;28;20056;-83
2024/03/18 05:17:36;;;;;;;11.32;3.00;;;8.40;99.90;;;;;;6222214;28;20042;-84
2024/03/18 05:20:37;;;;;;;16.42;3.50;;;8.30;99.90;;;;;;6206113;28;20084;-83
2024/03/18 05:23:37;;;;;;;19.65;3.78;;;8.30;99.90;;;;;;6220628;28;20121;-84
2024/03/18 05:26:39;;;;;;;19.48;4.00;;;8.20;99.90;;;;;;6221686;28;20473;-82
2024/03/18 05:29:39;;;;;;;15.02;3.63;;;8.20;99.90;;;;;;6210768;28;20053;-82
2024/03/18 05:32:40;;;;;;;19.95;4.05;;;8.10;99.90;;;;;;6205345;28;20050;-86
2024/03/18 05:35:41;;;;;;;14.60;3.40;;;8.20;99.90;;;;;;6223840;28;20062;-84
2024/03/18 05:38:42;;;;;;;11.55;2.65;;;8.20;99.90;;;;;;6217455;28;20080;-84
2024/03/18 05:41:43;;;;;;;10.52;3.22;;;8.10;99.90;;;;;;6223434;28;20064;-83
2024/03/18 05:44:44;;;;;;;16.45;3.83;;;7.90;99.90;;;;;;6188324;28;20133;-83
2024/03/18 05:47:44;;;;;;;16.95;3.80;;;7.80;99.90;;;;;;6203164;28;20053;-83
2024/03/18 05:50:45;;;;;;;15.50;3.42;;;7.70;99.90;;;;;;6205394;28;20398;-83
2024/03/18 05:53:46;;;;;;;16.75;4.15;;;7.70;99.90;;;;;;6221608;28;20053;-84
2024/03/18 05:56:47;;;;;;;12.75;3.58;;;7.70;99.90;;;;;;6197797;28;20065;-84
2024/03/18 05:59:48;;;;;;;18.67;4.05;;;7.70;99.90;;;;;;6193717;28;20513;-82
2024/03/18 06:02:48;;;;;;;18.67;4.10;;;7.70;99.90;;;;;;6221013;28;20060;-83
2024/03/18 06:05:49;;;;;;;17.30;3.97;;;7.70;99.90;;;;;;6221114;28;20081;-83
2024/03/18 06:08:50;;;;;;;10.73;3.80;;;7.60;99.90;;;;;;6204862;28;20133;-83
2024/03/18 06:11:51;;;;;;;16.20;4.38;;;7.50;99.90;;;;;;6221041;28;20429;-83
2024/03/18 06:14:52;;;;;;;10.00;3.42;;;7.50;99.90;;;;;;6182104;28;20141;-84
2024/03/18 06:17:53;;;;;;;12.07;3.33;;;7.50;99.90;;;;;;6229658;28;20139;-82
2024/03/18 06:20:55;;;;;;;13.35;3.38;;;7.60;99.90;;;;;;6229832;28;20157;-83
2024/03/18 06:23:59;;;;;;;14.10;3.95;;;7.60;99.90;;;;;;6235899;28;20064;-87
2024/03/18 06:26:59;;;;;;;20.02;4.47;;;7.70;99.90;;;;;;6224518;28;20107;-86
2024/03/18 06:30:00;;;;;;;17.92;4.10;;;7.90;99.90;;;;;;6215209;28;20144;-85
2024/03/18 06:33:01;;;;;;;15.18;4.18;;;8.00;99.90;;;;;;6225223;28;20081;-86
2024/03/18 06:36:11;;;;;;;14.38;4.60;;;8.20;99.90;;;;;;6200771;28;20086;-86
2024/03/18 06:39:12;;;;;;;15.65;4.05;;;8.30;99.90;;;;;;6204138;28;20046;-86
2024/03/18 06:42:13;;;;;;;13.57;3.70;;;8.50;99.90;;;;;;6222639;28;20046;-85
2024/03/18 06:45:14;;;;;;;16.30;3.95;;;8.80;99.90;;;;;;6215643;28;20061;-85
2024/03/18 06:48:15;;;;;;;20.65;3.97;;;8.90;99.90;;;;;;6220367;28;20643;-85
2024/03/18 06:51:16;;;;;;;16.42;3.78;;;9.10;99.90;;;;;;6222182;28;20092;-85
2024/03/18 06:54:17;;;;;;;14.57;3.75;;;9.20;99.90;;;;;;6221584;28;20104;-85
2024/03/18 06:57:18;;;;;;;16.63;3.28;;;9.30;99.90;;;;;;6183361;28;20101;-84
2024/03/18 07:00:19;;;;;;;18.85;3.85;;;9.50;99.90;;;;;;6215429;28;20529;-85
2024/03/18 07:03:21;;;;;;;18.58;3.38;;;9.60;99.90;;;;;;6220779;28;20115;-84
2024/03/18 07:06:21;;;;;;;13.70;3.55;;;9.70;99.90;;;;;;6197788;28;20054;-86
2024/03/18 07:09:22;;;;;;;19.83;3.75;;;9.80;99.90;;;;;;6221296;28;20092;-86
2024/03/18 07:12:23;;;;;;;16.23;3.67;;;9.90;99.90;;;;;;6220647;28;20049;-83
2024/03/18 07:15:24;;;;;;;18.60;3.30;;;10.00;99.90;;;;;;6215168;28;20154;-85
2024/03/18 07:18:25;;;;;;;12.05;3.00;;;10.40;99.90;;;;;;6220768;28;20057;-85
2024/03/18 07:21:26;;;;;;;11.85;3.00;;;10.90;99.90;;;;;;6220186;28;20046;-83
2024/03/18 07:24:26;;;;;;;10.75;2.78;;;11.10;99.90;;;;;;6220968;28;20785;-84
2024/03/18 07:27:27;;;;;;;13.77;3.00;;;11.00;99.90;;;;;;6222094;28;20046;-92
2024/03/18 07:30:28;;;;;;;13.70;3.20;;;10.80;99.90;;;;;;6197632;28;20449;-88
2024/03/18 07:33:29;;;;;;;12.45;2.85;;;10.70;99.90;;;;;;6223957;28;20050;-88
2024/03/18 07:36:30;;;;;;;14.32;3.30;;;10.60;99.90;;;;;;6223618;28;20132;-88
2024/03/18 07:39:31;;;;;;;15.50;3.25;;;10.50;99.90;;;;;;6218705;28;20072;-84
2024/03/18 07:42:32;;;;;;;11.77;2.85;;;10.50;99.90;;;;;;6219263;28;20420;-84
2024/03/18 07:45:33;;;;;;;17.23;3.58;;;10.70;99.90;;;;;;6197216;28;20058;-84
2024/03/18 07:48:33;;;;;;;11.23;2.00;;;11.20;99.90;;;;;;6219583;28;20113;-85
2024/03/18 07:51:34;;;;;;;12.85;2.22;;;11.70;99.90;;;;;;6222447;28;20058;-83
2024/03/18 07:54:35;;;;;;;12.32;2.42;;;12.60;99.90;;;;;;6225157;28;20062;-84
2024/03/18 07:57:36;;;;;;;7.85;2.45;;;13.20;95.60;;;;;;6209910;28;20042;-84
2024/03/18 08:00:37;;;;;;;8.95;2.00;;;13.80;95.70;;;;;;6198426;28;20413;-83
2024/03/18 08:03:38;;;;;;;9.70;1.90;;;14.00;70.80;;;;;;6205303;28;20050;-89
2024/03/18 08:06:41;;;;;;;9.43;2.33;;;14.60;67.00;;;;;;6225711;28;20410;-87
2024/03/18 08:09:42;;;;;;;10.85;2.10;;;15.20;71.50;;;;;;6210203;28;20046;-86
2024/03/18 08:12:43;;;;;;;11.85;1.98;;;15.70;6.30;;;;;;6224715;28;20452;-80
2024/03/18 08:15:43;;;;;;;9.10;1.75;;;15.90;14.70;;;;;;6193513;28;20064;-87
2024/03/18 08:18:44;;;;;;;6.88;1.60;;;16.10;20.00;;;;;;6202797;28;20058;-92
2024/03/18 08:21:45;;;;;;;6.85;1.50;;;16.40;12.60;;;;;;6209060;28;20054;-89
2024/03/18 08:24:49;;;;;;;10.88;1.85;;;17.10;3.30;;;;;;6208878;28;20107;-89
2024/03/18 08:27:50;;;;;;;7.93;1.70;;;16.90;1.00;;;;;;6224175;28;20060;-87
2024/03/18 08:30:50;;;;;;;7.07;1.75;;;16.80;1.00;;;;;;6220538;28;20065;-88
2024/03/18 08:33:52;;;;;;;10.35;1.90;;;16.70;1.00;;;;;;6207174;28;20422;-89
2024/03/18 08:36:53;;;;;;;5.65;1.58;;;16.30;1.00;;;;;;6224903;28;20050;-90
2024/03/18 08:39:55;;;;;;;6.95;1.27;;;16.20;1.00;;;;;;6208839;28;20164;-84
2024/03/18 08:42:56;;;;;;;9.23;1.70;;;16.40;1.00;;;;;;6221204;28;20477;-86
2024/03/18 08:45:57;;;;;;;9.23;1.88;;;16.30;1.00;;;;;;6184612;28;20100;-87
2024/03/18 08:48:58;;;;;;;8.90;1.50;;;16.10;1.00;;;;;;6221944;28;20058;-84
2024/03/18 08:51:59;;;;;;;7.60;1.73;;;15.90;1.00;;;;;;6196968;28;20387;-82
2024/03/18 08:55:00;;;;;;;9.57;1.80;;;15.70;1.00;;;;;;6221045;28;20145;-89
2024/03/18 08:58:00;;;;;;;8.32;1.85;;;15.40;4.70;;;;;;6219172;28;20062;-83
2024/03/18 09:01:02;;;;;;;9.18;2.13;;;15.00;11.50;;;;;;6191501;28;20138;-83
2024/03/18 09:04:05;;;;;;;13.48;2.30;;;14.60;38.00;;;;;;6218079;28;20391;-84
2024/03/18 09:07:06;;;;;;;12.02;2.38;;;14.10;67.00;;;;;;6219201;28;20532;-84
2024/03/18 09:10:07;;;;;;;11.98;2.30;;;14.00;80.30;;;;;;6219628;28;20058;-85
2024/03/18 09:13:09;;;;;;;11.68;2.60;;;14.00;83.20;;;;;;6219674;28;20058;-86
2024/03/18 09:16:09;;;;;;;7.80;2.13;;;14.00;88.40;;;;;;6202105;28;20068;-89
2024/03/18 09:19:10;;;;;;;8.43;1.73;;;13.90;91.00;;;;;;6204242;28;20093;-86
2024/03/18 09:22:11;;;;;;;9.15;2.13;;;13.70;90.00;;;;;;6220394;28;20124;-85
2024/03/18 09:25:12;;;;;;;9.48;2.10;;;13.80;92.50;;;;;;6221152;28;20089;-92
2024/03/18 09:28:13;;;;;;;7.68;2.15;;;13.90;93.20;;;;;;6215626;28;20555;-83
2024/03/18 09:31:14;;;;;;;9.05;1.83;;;14.00;92.50;;;;;;6199569;28;20088;-87
2024/03/18 09:34:17;;;;;;;7.80;2.08;;;14.00;91.20;;;;;;6211986;28;20057;-89
2024/03/18 09:37:17;;;;;;;8.27;1.67;;;13.90;93.00;;;;;;6207914;28;20076;-92
2024/03/18 09:40:18;;;;;;;9.52;2.13;;;13.90;93.10;;;;;;6223843;28;20054;-84
2024/03/18 09:43:19;;;;;;;5.45;1.27;;;13.90;93.10;;;;;;6212662;28;20050;-93
2024/03/18 09:46:21;;;;;;;6.60;1.90;;;14.10;86.60;;;;;;6206289;28;20516;-86
2024/03/18 09:49:25;;;;;;;5.28;1.77;;;14.10;89.20;;;;;;6203276;28;20054;-83
2024/03/18 09:52:26;;;;;;;5.15;1.80;;;14.20;88.30;;;;;;6220195;28;20405;-85
2024/03/18 09:55:27;;;;;;;4.30;1.00;;;14.40;81.00;;;;;;6203600;28;20065;-88
2024/03/18 09:58:28;;;;;;;6.40;1.35;;;14.80;76.90;;;;;;6199347;28;20061;-78
2024/03/18 10:01:29;;;;;;;8.50;1.50;;;15.10;50.40;;;;;;6219157;28;20057;-83
2024/03/18 10:04:30;;;;;;;5.75;1.10;;;15.10;47.80;;;;;;6219010;28;20064;-83
2024/03/18 10:07:30;;;;;;;4.93;1.17;;;14.60;53.40;;;;;;6203015;28;20061;-88
2024/03/18 10:10:32;;;;;;;6.05;1.10;;;14.50;68.70;;;;;;6204528;28;20621;-88
2024/03/18 10:13:33;;;;;;;6.60;1.20;;;14.40;61.80;;;;;;6188470;28;20441;-87
2024/03/18 10:16:34;;;;;;;4.88;1.20;;;14.20;61.40;;;;;;6216260;28;20097;-82
2024/03/18 10:19:34;;;;;;;6.75;1.23;;;14.40;75.50;;;;;;6202510;28;20464;-82
2024/03/18 10:22:35;;;;;;;4.90;1.30;;;14.50;65.50;;;;;;6203810;28;20050;-82
2024/03/18 10:25:36;;;;;;;6.85;1.35;;;14.40;70.60;;;;;;6221495;28;20049;-90
2024/03/18 10:28:38;;;;;;;5.32;1.20;;;14.30;77.60;;;;;;6207790;28;20050;-83
2024/03/18 10:31:39;;;;;;;5.93;1.30;;;14.40;83.10;;;;;;6218135;28;20488;-82
2024/03/18 10:34:42;;;;;;;9.25;1.52;;;14.50;73.50;;;;;;6224945;28;20058;-90
2024/03/18 10:37:43;;;;;;;6.03;1.13;;;14.30;75.60;;;;;;6221468;28;20058;-89
2024/03/18 10:40:43;;;;;;;6.80;1.00;;;14.30;75.40;;;;;;6219964;28;20069;-88
2024/03/18 10:43:44;;;;;;;6.05;1.10;;;14.30;78.80;;;;;;6199457;28;20145;-92
2024/03/18 10:46:45;;;;;;;6.70;1.20;;;14.20;81.50;;;;;;6211262;28;20089;-89
2024/03/18 10:49:46;;;;;;;5.25;1.20;;;13.90;91.10;;;;;;6214104;28;20057;-88
2024/03/18 10:52:47;;;;;;;6.32;1.42;;;13.90;91.60;;;;;;6228009;28;20057;-90
2024/03/18 10:55:52;;;;;;;7.97;1.70;;;14.20;92.10;;;;;;6207829;28;20054;-92
2024/03/18 10:58:53;;;;;;;5.10;1.50;;;14.70;91.10;;;;;;6206217;28;20524;-82
2024/03/18 11:01:54;;;;;;;6.15;1.58;;;15.40;79.40;;;;;;6218108;28;20066;-83
2024/03/18 11:04:54;;;;;;;7.47;1.67;;;15.70;67.70;;;;;;6217394;28;20080;-83
2024/03/18 11:07:56;;;;;;;5.40;1.80;;;15.90;51.40;;;;;;6202527;28;20049;-84
2024/03/18 11:10:57;;;;;;;4.40;1.70;;;16.10;43.30;;;;;;6199786;28;20485;-83
2024/03/18 11:13:57;;;;;;;4.60;1.70;;;16.30;23.30;;;;;;6205848;28;20100;-82
2024/03/18 11:17:00;;;;;;;6.22;1.70;;;16.60;15.80;;;;;;6217353;28;20131;-82
2024/03/18 11:20:01;;;;;;;6.10;1.50;;;16.60;24.50;;;;;;6217733;28;20093;-82
2024/03/18 11:23:01;;;;;;;7.22;1.65;;;16.40;18.50;;;;;;6218093;28;20136;-83
2024/03/18 11:26:03;;;;;;;5.10;1.50;;;16.20;16.10;;;;;;6217012;28;20062;-83
2024/03/18 11:29:05;;;;;;;5.68;1.63;;;15.80;39.50;;;;;;6213912;28;20057;-88
2024/03/18 11:32:06;;;;;;;5.18;1.70;;;15.60;31.80;;;;;;6206120;28;20062;-94
2024/03/18 11:35:07;;;;;;;6.93;1.35;;;15.40;47.10;;;;;;6204860;28;20133;-92
2024/03/18 11:38:08;;;;;;;6.40;1.80;;;15.20;68.40;;;;;;6196248;28;20128;-93
2024/03/18 11:41:09;;;;;;;8.00;1.98;;;15.00;75.60;;;;;;6212562;28;20050;-88
2024/03/18 11:44:10;;;;;;;6.53;1.52;;;15.00;88.00;;;;;;6186660;28;20085;-92
2024/03/18 11:47:11;;;;;;;4.30;1.38;;;15.70;91.70;;;;;;6211050;28;20149;-88
2024/03/18 11:50:12;;;;;;;5.50;1.13;;;16.70;77.90;;;;;;6204569;28;20421;-88
2024/03/18 11:53:13;;;;;;;3.92;1.15;;;17.60;17.20;;;;;;6202075;28;20125;-84
2024/03/18 11:56:14;;;;;;;5.60;1.33;;;18.00;1.00;;;;;;6198962;28;20053;-87
2024/03/18 11:59:15;;;;;;;4.63;1.10;;;18.00;12.10;;;;;;6179802;28;20054;-83
2024/03/18 12:02:16;;;;;;;4.50;1.02;;;18.30;1.00;;;;;;6217290;28;20050;-85
2024/03/18 12:05:16;;;;;;;2.75;0.93;;;18.50;1.00;;;;;;6221027;28;20065;-88
2024/03/18 12:08:17;;;;;;;3.55;0.93;;;18.30;1.00;;;;;;6222472;28;20137;-89
2024/03/18 12:11:18;;;;;;;3.13;0.90;;;18.40;1.00;;;;;;6222842;28;20485;-90
2024/03/18 12:14:18;;;;;;;4.53;1.00;;;18.50;1.00;;;;;;6205376;28;20045;-89
2024/03/18 12:17:19;;;;;;;5.47;1.27;;;18.80;1.00;;;;;;6200834;28;20481;-90
2024/03/18 12:20:20;;;;;;;6.30;1.13;;;19.40;1.00;;;;;;6207500;28;20061;-86
2024/03/18 12:30:07;;;;;;;2.72;0.88;;;18.50;1.00;;;;;;6168091;28;20045;-84
2024/03/18 12:33:11;;;;;;;3.90;0.80;;;17.90;1.00;;;;;;6216940;28;20054;-85
2024/03/18 12:36:13;;;;;;;3.80;0.95;;;17.70;1.00;;;;;;6202274;28;20068;-86
2024/03/18 12:39:14;;;;;;;4.43;0.70;;;17.70;1.00;;;;;;6213460;28;20540;-84
2024/03/18 12:42:15;;;;;;;3.03;0.77;;;17.50;1.00;;;;;;6221202;28;20050;-83
2024/03/18 12:45:16;;;;;;;2.97;0.85;;;17.50;1.00;;;;;;6207429;28;20058;-83
2024/03/18 12:48:16;;;;;;;4.63;1.08;;;17.30;1.00;;;;;;6220944;28;20054;-82
2024/03/18 12:51:17;;;;;;;4.78;1.10;;;17.00;1.00;;;;;;6221600;28;20064;-82
2024/03/18 12:54:17;;;;;;;3.20;0.90;;;16.90;1.00;;;;;;6203410;28;20088;-84
2024/03/18 12:57:18;;;;;;;3.03;0.90;;;16.40;1.00;;;;;;6220973;28;20066;-82
2024/03/18 13:00:19;;;;;;;3.90;0.70;;;16.30;3.00;;;;;;6216108;28;20072;-85
2024/03/18 13:03:20;;;;;;;4.00;1.02;;;16.20;6.10;;;;;;6204962;28;20128;-83
2024/03/18 13:06:20;;;;;;;3.13;0.90;;;16.30;10.90;;;;;;6205021;28;20401;-85
2024/03/18 13:09:22;;;;;;;3.65;1.13;;;16.30;10.80;;;;;;6202974;28;20085;-85
2024/03/18 13:12:22;;;;;;;3.80;0.95;;;16.10;10.40;;;;;;6204965;28;20052;-84
2024/03/18 13:15:23;;;;;;;2.53;0.70;;;16.00;8.80;;;;;;6199211;28;20065;-84
2024/03/18 13:18:27;;;;;;;4.18;1.05;;;15.90;9.40;;;;;;6204637;28;20060;-83
2024/03/18 13:21:28;;;;;;;2.97;0.90;;;15.80;13.70;;;;;;6204806;28;20060;-85
2024/03/18 13:24:30;;;;;;;3.40;0.88;;;15.80;14.50;;;;;;6220872;28;20062;-85
2024/03/18 13:27:30;;;;;;;3.75;0.98;;;16.00;14.70;;;;;;6220279;28;20064;-84
2024/03/18 13:30:31;;;;;;;3.33;0.95;;;16.00;12.50;;;;;;6216816;28;20426;-84
2024/03/18 13:33:31;;;;;;;3.75;0.85;;;16.20;8.30;;;;;;6220412;28;20581;-85
2024/03/18 13:36:33;;;;;;;3.80;0.85;;;16.60;1.00;;;;;;6220191;28;20065;-85
2024/03/18 13:39:35;;;;;;;3.95;1.00;;;17.00;1.00;;;;;;6219887;28;20056;-84
2024/03/18 13:42:36;;;;;;;3.80;1.08;;;17.10;1.00;;;;;;6220295;28;20061;-83
2024/03/18 13:45:36;;;;;;;3.47;1.05;;;16.90;1.00;;;;;;6185650;28;20053;-85
2024/03/18 13:48:38;;;;;;;5.45;1.40;;;16.90;1.00;;;;;;6219926;28;20327;-85
2024/03/18 13:51:39;;;;;;;3.58;0.93;;;17.00;1.00;;;;;;6204109;28;20060;-84
2024/03/18 13:54:39;;;;;;;2.85;0.80;;;16.90;1.00;;;;;;6219608;28;20429;-85
2024/03/18 13:57:40;;;;;;;4.57;1.02;;;16.50;1.00;;;;;;6219294;28;20417;-81
2024/03/18 14:00:41;;;;;;;2.75;0.90;;;16.40;1.00;;;;;;6202748;28;20682;-82
2024/03/18 14:03:41;;;;;;;3.55;1.00;;;16.50;1.00;;;;;;6202208;28;20050;-80
2024/03/18 14:06:42;;;;;;;4.53;1.08;;;16.60;1.00;;;;;;6214366;28;20034;-90
2024/03/18 14:09:44;;;;;;;4.57;0.90;;;16.60;1.00;;;;;;6212834;28;20658;-92
2024/03/18 14:12:45;;;;;;;3.53;0.80;;;16.60;1.00;;;;;;6209738;28;20060;-91
2024/03/18 14:15:46;;;;;;;6.40;1.40;;;16.40;1.00;;;;;;6202689;28;20136;-92
2024/03/18 14:18:47;;;;;;;4.88;1.40;;;16.30;1.00;;;;;;6205624;28;20060;-84
2024/03/18 14:21:48;;;;;;;5.18;1.45;;;16.20;1.00;;;;;;6226037;28;20057;-83
2024/03/18 14:24:50;;;;;;;4.38;1.40;;;16.20;1.00;;;;;;6220208;28;20053;-89
2024/03/18 14:27:54;;;;;;;7.25;1.98;;;16.10;1.00;;;;;;6220824;28;20068;-91
2024/03/18 14:30:55;;;;;;;6.18;1.55;;;15.80;1.00;;;;;;6180117;28;20053;-82
2024/03/18 14:33:58;;;;;;;6.85;1.77;;;15.80;1.00;;;;;;6203204;28;20053;-92
2024/03/18 14:36:59;;;;;;;4.38;1.80;;;15.80;1.00;;;;;;6209372;28;20119;-85
2024/03/18 14:40:00;;;;;;;6.45;2.25;;;15.60;1.00;;;;;;6220235;28;20053;-86
2024/03/18 14:43:02;;;;;;;5.85;1.95;;;15.60;1.00;;;;;;6186093;28;20069;-91
2024/03/18 14:46:04;;;;;;;10.02;2.75;;;15.50;1.00;;;;;;6182417;28;20076;-87
2024/03/18 14:49:05;;;;;;;5.85;2.38;;;15.70;1.00;;;;;;6196339;28;20054;-80
2024/03/18 14:52:05;;;;;;;9.20;3.03;;;15.80;1.00;;;;;;6223090;28;20050;-84
2024/03/18 14:55:09;;;;;;;5.35;2.33;;;15.80;1.00;;;;;;6199576;28;20410;-91
2024/03/18 14:58:11;;;;;;;7.15;2.15;;;15.70;1.00;;;;;;6215003;28;20060;-82
2024/03/18 15:01:15;;;;;;;9.68;2.10;;;15.70;1.00;;;;;;6216919;28;20493;-82
2024/03/18 15:04:15;;;;;;;8.82;2.25;;;15.50;1.00;;;;;;6221859;28;20141;-93
2024/03/18 15:07:16;;;;;;;5.80;1.83;;;15.60;1.00;;;;;;6220833;28;20106;-93
2024/03/18 15:10:17;;;;;;;5.60;1.60;;;15.70;1.00;;;;;;6215038;28;20063;-90
2024/03/18 15:13:18;;;;;;;6.53;1.80;;;15.90;1.00;;;;;;6206076;28;20049;-90
2024/03/18 15:16:19;;;;;;;5.70;1.63;;;16.00;1.00;;;;;;6230930;28;20049;-90
2024/03/18 15:19:20;;;;;;;8.35;1.70;;;16.10;1.00;;;;;;6214242;28;20075;-85
2024/03/18 15:22:21;;;;;;;11.30;1.75;;;16.20;1.00;;;;;;6221115;28;20088;-87
2024/03/18 15:28:41;;;;;;;6.10;1.80;;;15.80;1.00;;;;;;6204827;28;20062;-89
2024/03/18 15:31:42;;;;;;;7.03;1.30;;;15.70;1.00;;;;;;6231335;28;20073;-88
2024/03/18 15:34:46;;;;;;;8.75;1.70;;;15.70;7.70;;;;;;6236149;28;20065;-91
2024/03/18 15:37:47;;;;;;;12.32;2.15;;;15.70;11.20;;;;;;6230494;28;20149;-89
2024/03/18 15:40:48;;;;;;;5.93;1.70;;;15.50;9.40;;;;;;6211365;28;20351;-91
2024/03/18 15:43:49;;;;;;;5.95;1.67;;;15.60;13.50;;;;;;6210066;28;20054;-93
2024/03/18 15:46:49;;;;;;;5.63;1.80;;;15.70;13.60;;;;;;6208684;28;20081;-90
2024/03/18 15:49:50;;;;;;;6.18;1.70;;;15.70;7.20;;;;;;6224894;28;20057;-91
2024/03/18 15:52:51;;;;;;;6.72;1.90;;;16.00;17.60;;;;;;6226081;28;20478;-82